PWSweather.com
Personal Weather Stations
Station Observations
KCTHAMDEN
Dunbar Hill, Hamden, CT 06514

Dunbar HillHamden, CT 06514

Lat: 41.365437, Lon: -72.956532

Elevation: 200

Station Type: Davis Vantage Pro2+

www.hamdenweather.com

High Low Average
Temperature 69.5°F20.8°C 52.1°F11.2°C 63.7°F17.6°C
Dew Point 67.1°F19.5°C 50.3°F10.2°C 61.4°F16.3°C
Winds 2.6 mph 4.2 kmh Calm Calm Calm SECalm SE
Wind Gusts 8.0 mph12.9 kmh -- 1.0 mph1.6 kmh
Humidity 96% 89% 92%
Pressure 30.08 in1018.6 mb 29.71 in1006.1 mb -
Precipitation 0.00 in0.0 mm - -
Hour Temp Dew Point Humidity Winds Wind Gusts Pressure Precip Precip Rate Daily Precip Total
12:00 AM 56.4°F13.6°C 51.6°F10.9°C 84% Calm Calm -- 30.09 in1019.0 mb - 0.00 in0.0 mm 0.00 in0.0 mm
12:15 AM 56.0°F13.3°C 51.6°F10.9°C 85% Calm Calm -- 30.09 in1019.0 mb - 0.00 in0.0 mm 0.00 in0.0 mm
12:30 AM 55.7°F13.2°C 51.9°F11.1°C 87% Calm Calm -- 30.08 in1018.6 mb - 0.00 in0.0 mm 0.00 in0.0 mm
12:45 AM 55.6°F13.1°C 52.1°F11.2°C 88% Calm Calm -- 30.08 in1018.6 mb - 0.00 in0.0 mm 0.00 in0.0 mm
01:00 AM 55.4°F13.0°C 52.2°F11.2°C 89% Calm Calm -- 30.08 in1018.6 mb - 0.00 in0.0 mm 0.00 in0.0 mm
01:15 AM 55.3°F12.9°C 52.1°F11.2°C 89% 0.9 mph SE1.4 kmh SE 2.0 mph3.2 kmh 30.08 in1018.6 mb - 0.00 in0.0 mm 0.00 in0.0 mm
01:30 AM 55.1°F12.8°C 51.9°F11.1°C 89% Calm Calm -- 30.07 in1018.3 mb - 0.00 in0.0 mm 0.00 in0.0 mm
01:45 AM 54.8°F12.7°C 51.6°F10.9°C 89% Calm Calm -- 30.07 in1018.3 mb - 0.00 in0.0 mm 0.00 in0.0 mm
02:00 AM 54.5°F12.5°C 51.3°F10.7°C 89% Calm Calm -- 30.06 in1017.9 mb - 0.00 in0.0 mm 0.00 in0.0 mm
02:15 AM 54.3°F12.4°C 51.4°F10.8°C 90% Calm Calm -- 30.06 in1017.9 mb - 0.00 in0.0 mm 0.00 in0.0 mm
02:30 AM 54.1°F12.3°C 51.6°F10.9°C 91% Calm Calm -- 30.05 in1017.6 mb - 0.00 in0.0 mm 0.00 in0.0 mm
02:45 AM 54.0°F12.2°C 51.7°F10.9°C 92% Calm Calm -- 30.05 in1017.6 mb - 0.00 in0.0 mm 0.00 in0.0 mm
03:00 AM 53.9°F12.2°C 51.6°F10.9°C 92% Calm Calm -- 30.05 in1017.6 mb - 0.00 in0.0 mm 0.00 in0.0 mm
03:15 AM 53.7°F12.1°C 51.4°F10.8°C 92% Calm Calm -- 30.04 in1017.3 mb - 0.00 in0.0 mm 0.00 in0.0 mm
03:30 AM 53.5°F11.9°C 51.2°F10.7°C 92% Calm Calm -- 30.04 in1017.3 mb - 0.00 in0.0 mm 0.00 in0.0 mm
03:45 AM 53.2°F11.8°C 51.2°F10.7°C 93% Calm Calm -- 30.03 in1016.9 mb - 0.00 in0.0 mm 0.00 in0.0 mm
04:00 AM 52.8°F11.6°C 50.6°F10.3°C 92% Calm Calm -- 30.03 in1016.9 mb - 0.00 in0.0 mm 0.00 in0.0 mm
04:15 AM 52.6°F11.4°C 50.6°F10.3°C 93% Calm Calm -- 30.03 in1016.9 mb - 0.00 in0.0 mm 0.00 in0.0 mm
04:30 AM 52.3°F11.3°C 50.3°F10.2°C 93% Calm Calm -- 30.03 in1016.9 mb - 0.00 in0.0 mm 0.00 in0.0 mm
04:45 AM 52.3°F11.3°C 50.3°F10.2°C 93% Calm Calm -- 30.02 in1016.6 mb - 0.00 in0.0 mm 0.00 in0.0 mm
05:00 AM 52.1°F11.2°C 50.4°F10.2°C 94% Calm Calm -- 30.02 in1016.6 mb - 0.00 in0.0 mm 0.00 in0.0 mm
05:15 AM 52.1°F11.2°C 50.4°F10.2°C 94% Calm Calm -- 30.02 in1016.6 mb - 0.00 in0.0 mm 0.00 in0.0 mm
05:30 AM 52.4°F11.3°C 51.0°F10.6°C 95% Calm Calm -- 30.02 in1016.6 mb - 0.00 in0.0 mm 0.00 in0.0 mm
05:45 AM 53.3°F11.8°C 51.9°F11.1°C 95% Calm Calm -- 30.02 in1016.6 mb - 0.00 in0.0 mm 0.00 in0.0 mm
06:00 AM 54.0°F12.2°C 52.9°F11.6°C 96% Calm Calm -- 30.02 in1016.6 mb - 0.00 in0.0 mm 0.00 in0.0 mm
06:15 AM 54.6°F12.6°C 53.5°F11.9°C 96% Calm Calm -- 30.01 in1016.3 mb - 0.00 in0.0 mm 0.00 in0.0 mm
06:30 AM 55.3°F12.9°C 54.1°F12.3°C 96% Calm Calm -- 30.02 in1016.6 mb - 0.00 in0.0 mm 0.00 in0.0 mm
06:45 AM 56.0°F13.3°C 54.9°F12.7°C 96% Calm Calm -- 30.01 in1016.3 mb - 0.00 in0.0 mm 0.00 in0.0 mm
07:00 AM 56.8°F13.8°C 55.7°F13.2°C 96% Calm Calm -- 30.01 in1016.3 mb - 0.00 in0.0 mm 0.00 in0.0 mm
07:15 AM 57.7°F14.3°C 56.6°F13.7°C 96% Calm Calm -- 30.01 in1016.3 mb - 0.00 in0.0 mm 0.00 in0.0 mm
07:30 AM 58.6°F14.8°C 57.5°F14.2°C 96% Calm Calm -- 30.00 in1015.9 mb - 0.00 in0.0 mm 0.00 in0.0 mm
07:45 AM 59.8°F15.4°C 58.6°F14.8°C 96% Calm Calm -- 29.99 in1015.6 mb - 0.00 in0.0 mm 0.00 in0.0 mm
08:00 AM 60.7°F15.9°C 59.6°F15.3°C 96% Calm Calm 1.0 mph1.6 kmh 30.00 in1015.9 mb - 0.00 in0.0 mm 0.00 in0.0 mm
08:15 AM 61.7°F16.5°C 60.2°F15.7°C 95% 0.1 mph SE0.2 kmh SE 1.0 mph1.6 kmh 30.00 in1015.9 mb - 0.00 in0.0 mm 0.00 in0.0 mm
08:30 AM 62.4°F16.9°C 60.6°F15.9°C 94% Calm Calm -- 30.00 in1015.9 mb - 0.00 in0.0 mm 0.00 in0.0 mm
08:45 AM 63.0°F17.2°C 60.9°F16.1°C 93% Calm Calm -- 30.00 in1015.9 mb - 0.00 in0.0 mm 0.00 in0.0 mm
09:00 AM 63.5°F17.5°C 61.1°F16.2°C 92% Calm Calm -- 30.00 in1015.9 mb - 0.00 in0.0 mm 0.00 in0.0 mm
09:15 AM 64.0°F17.8°C 61.6°F16.4°C 92% 0.2 mph SE0.3 kmh SE 1.0 mph1.6 kmh 29.99 in1015.6 mb - 0.00 in0.0 mm 0.00 in0.0 mm
09:30 AM 64.6°F18.1°C 61.9°F16.6°C 91% Calm Calm -- 29.99 in1015.6 mb - 0.00 in0.0 mm 0.00 in0.0 mm
09:45 AM 65.2°F18.4°C 62.2°F16.8°C 90% Calm Calm -- 29.98 in1015.2 mb - 0.00 in0.0 mm 0.00 in0.0 mm
10:00 AM 65.9°F18.8°C 62.6°F17.0°C 89% 0.6 mph S1.0 kmh S 1.0 mph1.6 kmh 29.98 in1015.2 mb - 0.00 in0.0 mm 0.00 in0.0 mm
10:15 AM 66.6°F19.2°C 63.5°F17.5°C 90% 0.1 mph S0.2 kmh S 2.0 mph3.2 kmh 29.97 in1014.9 mb - 0.00 in0.0 mm 0.00 in0.0 mm
10:30 AM 66.8°F19.3°C 63.5°F17.5°C 89% 0.4 mph SE0.6 kmh SE -- 29.97 in1014.9 mb - 0.00 in0.0 mm 0.00 in0.0 mm
10:45 AM 67.0°F19.4°C 63.6°F17.6°C 89% 0.2 mph ESE0.3 kmh ESE -- 29.97 in1014.9 mb - 0.00 in0.0 mm 0.00 in0.0 mm
11:00 AM 67.3°F19.6°C 63.9°F17.7°C 89% 2.0 mph SE3.2 kmh SE 8.0 mph12.9 kmh 29.96 in1014.6 mb - 0.00 in0.0 mm 0.00 in0.0 mm
11:15 AM 67.7°F19.8°C 64.3°F17.9°C 89% 0.7 mph ESE1.1 kmh ESE 3.0 mph4.8 kmh 29.95 in1014.2 mb - 0.00 in0.0 mm 0.00 in0.0 mm
11:30 AM 67.7°F19.8°C 64.7°F18.2°C 90% 2.3 mph E3.7 kmh E 4.0 mph6.4 kmh 29.94 in1013.9 mb - 0.00 in0.0 mm 0.00 in0.0 mm
11:45 AM 67.6°F19.8°C 64.9°F18.3°C 91% 2.3 mph SE3.7 kmh SE 5.0 mph8.0 kmh 29.93 in1013.5 mb - 0.00 in0.0 mm 0.00 in0.0 mm
12:00 PM 67.6°F19.8°C 64.9°F18.3°C 91% 2.1 mph ESE3.4 kmh ESE 5.0 mph8.0 kmh 29.92 in1013.2 mb - 0.00 in0.0 mm 0.00 in0.0 mm
12:15 PM 67.4°F19.7°C 64.7°F18.2°C 91% 0.1 mph ESE0.2 kmh ESE 2.0 mph3.2 kmh 29.92 in1013.2 mb - 0.00 in0.0 mm 0.00 in0.0 mm
12:30 PM 67.2°F19.6°C 64.5°F18.1°C 91% Calm Calm -- 29.91 in1012.9 mb - 0.00 in0.0 mm 0.00 in0.0 mm
12:45 PM 67.2°F19.6°C 64.8°F18.2°C 92% 0.1 mph SE0.2 kmh SE 2.0 mph3.2 kmh 29.91 in1012.9 mb - 0.00 in0.0 mm 0.00 in0.0 mm
01:00 PM 67.3°F19.6°C 64.6°F18.1°C 91% 0.5 mph S0.8 kmh S 1.0 mph1.6 kmh 29.91 in1012.9 mb - 0.00 in0.0 mm 0.00 in0.0 mm
01:15 PM 67.5°F19.7°C 64.8°F18.2°C 91% 0.2 mph ESE0.3 kmh ESE -- 29.90 in1012.5 mb - 0.00 in0.0 mm 0.00 in0.0 mm
01:30 PM 67.6°F19.8°C 64.9°F18.3°C 91% 0.3 mph SE0.5 kmh SE 2.0 mph3.2 kmh 29.90 in1012.5 mb - 0.00 in0.0 mm 0.00 in0.0 mm
01:45 PM 68.1°F20.1°C 65.1°F18.4°C 90% 0.9 mph S1.4 kmh S 2.0 mph3.2 kmh 29.89 in1012.2 mb - 0.00 in0.0 mm 0.00 in0.0 mm
02:00 PM 68.4°F20.2°C 65.7°F18.7°C 91% Calm Calm -- 29.88 in1011.9 mb - 0.00 in0.0 mm 0.00 in0.0 mm
02:15 PM 68.7°F20.4°C 65.6°F18.7°C 90% Calm Calm -- 29.87 in1011.5 mb - 0.00 in0.0 mm 0.00 in0.0 mm
02:30 PM 69.2°F20.7°C 66.1°F18.9°C 90% 1.0 mph SE1.6 kmh SE 8.0 mph12.9 kmh 29.87 in1011.5 mb - 0.00 in0.0 mm 0.00 in0.0 mm
02:45 PM 69.4°F20.8°C 66.0°F18.9°C 89% 2.5 mph SE4.0 kmh SE 3.0 mph4.8 kmh 29.87 in1011.5 mb - 0.00 in0.0 mm 0.00 in0.0 mm
03:00 PM 69.3°F20.7°C 65.9°F18.8°C 89% 1.2 mph SSE1.9 kmh SSE 4.0 mph6.4 kmh 29.86 in1011.2 mb - 0.00 in0.0 mm 0.00 in0.0 mm
03:15 PM 69.3°F20.7°C 66.6°F19.2°C 91% Calm Calm -- 29.86 in1011.2 mb - 0.00 in0.0 mm 0.00 in0.0 mm
03:30 PM 69.2°F20.7°C 66.5°F19.2°C 91% 0.4 mph ESE0.6 kmh ESE 1.0 mph1.6 kmh 29.85 in1010.8 mb - 0.00 in0.0 mm 0.00 in0.0 mm
03:45 PM 69.0°F20.6°C 66.6°F19.2°C 92% 1.4 mph SE2.3 kmh SE 3.0 mph4.8 kmh 29.84 in1010.5 mb - 0.00 in0.0 mm 0.00 in0.0 mm
04:00 PM 69.1°F20.6°C 67.0°F19.4°C 93% 0.7 mph SE1.1 kmh SE 2.0 mph3.2 kmh 29.84 in1010.5 mb - 0.00 in0.0 mm 0.00 in0.0 mm
04:15 PM 69.2°F20.7°C 66.8°F19.3°C 92% 2.6 mph SSE4.2 kmh SSE 7.0 mph11.3 kmh 29.83 in1010.2 mb - 0.00 in0.0 mm 0.00 in0.0 mm
04:30 PM 69.0°F20.6°C 66.6°F19.2°C 92% 1.4 mph NE2.3 kmh NE 1.0 mph1.6 kmh 29.82 in1009.8 mb - 0.00 in0.0 mm 0.00 in0.0 mm
04:45 PM 69.0°F20.6°C 66.6°F19.2°C 92% 0.3 mph E0.5 kmh E 1.0 mph1.6 kmh 29.82 in1009.8 mb - 0.00 in0.0 mm 0.00 in0.0 mm
05:00 PM 69.0°F20.6°C 66.6°F19.2°C 92% 0.3 mph SE0.5 kmh SE 3.0 mph4.8 kmh 29.81 in1009.5 mb - 0.00 in0.0 mm 0.00 in0.0 mm
05:15 PM 69.0°F20.6°C 66.6°F19.2°C 92% Calm Calm 1.0 mph1.6 kmh 29.81 in1009.5 mb - 0.00 in0.0 mm 0.00 in0.0 mm
05:30 PM 69.0°F20.6°C 66.6°F19.2°C 92% 0.7 mph SW1.1 kmh SW 2.0 mph3.2 kmh 29.81 in1009.5 mb - 0.00 in0.0 mm 0.00 in0.0 mm
05:45 PM 69.0°F20.6°C 66.6°F19.2°C 92% 0.1 mph E0.2 kmh E -- 29.80 in1009.1 mb - 0.00 in0.0 mm 0.00 in0.0 mm
06:00 PM 69.1°F20.6°C 66.7°F19.3°C 92% Calm Calm -- 29.80 in1009.1 mb - 0.00 in0.0 mm 0.00 in0.0 mm
06:15 PM 69.2°F20.7°C 66.8°F19.3°C 92% 0.3 mph SE0.5 kmh SE 2.0 mph3.2 kmh 29.79 in1008.8 mb - 0.00 in0.0 mm 0.00 in0.0 mm
06:30 PM 69.4°F20.8°C 67.0°F19.4°C 92% 0.9 mph WSW1.4 kmh WSW 2.0 mph3.2 kmh 29.79 in1008.8 mb - 0.00 in0.0 mm 0.00 in0.0 mm
06:45 PM 69.4°F20.8°C 67.0°F19.4°C 92% 1.2 mph NE1.9 kmh NE 3.0 mph4.8 kmh 29.79 in1008.8 mb - 0.00 in0.0 mm 0.00 in0.0 mm
07:00 PM 69.5°F20.8°C 67.1°F19.5°C 92% Calm Calm -- 29.79 in1008.8 mb - 0.00 in0.0 mm 0.00 in0.0 mm
07:15 PM 69.5°F20.8°C 67.1°F19.5°C 92% 0.1 mph SE0.2 kmh SE 1.0 mph1.6 kmh 29.78 in1008.5 mb - 0.00 in0.0 mm 0.00 in0.0 mm
07:30 PM 69.5°F20.8°C 67.1°F19.5°C 92% Calm Calm -- 29.78 in1008.5 mb - 0.00 in0.0 mm 0.00 in0.0 mm
07:45 PM 69.5°F20.8°C 67.1°F19.5°C 92% Calm Calm -- 29.78 in1008.5 mb - 0.00 in0.0 mm 0.00 in0.0 mm
08:00 PM 69.5°F20.8°C 67.1°F19.5°C 92% Calm Calm -- 29.78 in1008.5 mb - 0.00 in0.0 mm 0.00 in0.0 mm
08:15 PM 69.4°F20.8°C 67.0°F19.4°C 92% Calm Calm -- 29.77 in1008.1 mb - 0.00 in0.0 mm 0.00 in0.0 mm
08:30 PM 69.3°F20.7°C 66.9°F19.4°C 92% Calm Calm -- 29.77 in1008.1 mb - 0.00 in0.0 mm 0.00 in0.0 mm
08:45 PM 69.1°F20.6°C 66.7°F19.3°C 92% Calm Calm -- 29.75 in1007.5 mb - 0.00 in0.0 mm 0.00 in0.0 mm
09:00 PM 68.8°F20.4°C 66.4°F19.1°C 92% Calm Calm -- 29.74 in1007.1 mb - 0.00 in0.0 mm 0.00 in0.0 mm
09:15 PM 68.3°F20.2°C 66.2°F19.0°C 93% Calm Calm -- 29.74 in1007.1 mb - 0.00 in0.0 mm 0.00 in0.0 mm
09:30 PM 68.0°F20.0°C 65.9°F18.8°C 93% Calm Calm -- 29.74 in1007.1 mb - 0.00 in0.0 mm 0.00 in0.0 mm
09:45 PM 67.6°F19.8°C 65.8°F18.8°C 94% Calm Calm -- 29.74 in1007.1 mb - 0.00 in0.0 mm 0.00 in0.0 mm
10:00 PM 67.2°F19.6°C 65.4°F18.6°C 94% Calm Calm -- 29.74 in1007.1 mb - 0.00 in0.0 mm 0.00 in0.0 mm
10:15 PM 66.7°F19.3°C 64.9°F18.3°C 94% Calm Calm -- 29.75 in1007.5 mb - 0.00 in0.0 mm 0.00 in0.0 mm
10:30 PM 66.5°F19.2°C 64.7°F18.2°C 94% Calm Calm -- 29.76 in1007.8 mb - 0.00 in0.0 mm 0.00 in0.0 mm
10:45 PM 66.5°F19.2°C 65.0°F18.3°C 95% 0.7 mph SE1.1 kmh SE 1.0 mph1.6 kmh 29.75 in1007.5 mb - 0.00 in0.0 mm 0.00 in0.0 mm
11:00 PM 66.5°F19.2°C 65.0°F18.3°C 95% Calm Calm -- 29.75 in1007.5 mb - 0.00 in0.0 mm 0.00 in0.0 mm
11:15 PM 66.4°F19.1°C 64.9°F18.3°C 95% Calm Calm -- 29.74 in1007.1 mb - 0.00 in0.0 mm 0.00 in0.0 mm
11:30 PM 66.4°F19.1°C 65.2°F18.4°C 96% Calm Calm -- 29.73 in1006.8 mb - 0.00 in0.0 mm 0.00 in0.0 mm
11:45 PM 66.4°F19.1°C 65.2°F18.4°C 96% Calm Calm -- 29.72 in1006.4 mb - 0.00 in0.0 mm 0.00 in0.0 mm